createdAt,value
2022-10-13T00:00:23.734Z,99.99
2022-10-13T00:01:23.737Z,99.99
2022-10-13T00:02:23.674Z,99.99
2022-10-13T00:03:23.647Z,99.99
2022-10-13T00:04:23.654Z,99.99
2022-10-13T00:05:23.632Z,99.99
2022-10-13T00:06:23.525Z,99.99
2022-10-13T00:07:23.480Z,99.99
2022-10-13T00:08:23.462Z,99.99
2022-10-13T00:09:23.432Z,99.99
2022-10-13T00:10:23.379Z,99.99
2022-10-13T00:11:23.410Z,99.99
2022-10-13T00:12:23.320Z,99.99
2022-10-13T00:13:23.277Z,99.99
2022-10-13T00:14:23.291Z,99.99
2022-10-13T00:15:23.194Z,99.99
2022-10-13T00:16:23.175Z,99.99
2022-10-13T00:17:23.238Z,99.99
2022-10-13T00:18:23.108Z,99.99
2022-10-13T00:19:23.060Z,99.99
2022-10-13T00:20:23.026Z,99.99
2022-10-13T00:21:23.011Z,99.99
2022-10-13T00:22:23.036Z,99.99
2022-10-13T00:23:22.934Z,99.99
2022-10-13T00:24:22.877Z,99.99
2022-10-13T00:25:22.844Z,99.99
2022-10-13T00:26:22.853Z,99.99
2022-10-13T00:27:22.775Z,99.99
2022-10-13T00:28:22.804Z,99.99
2022-10-13T00:29:22.755Z,99.99
2022-10-13T00:30:22.656Z,99.99
2022-10-13T00:31:22.637Z,99.99
2022-10-13T00:32:22.599Z,99.99
2022-10-13T00:33:22.557Z,99.99
2022-10-13T00:34:22.567Z,99.99
2022-10-13T00:35:22.476Z,99.99
2022-10-13T00:36:22.448Z,99.99
2022-10-13T00:37:22.452Z,99.99
2022-10-13T00:38:22.382Z,99.99
2022-10-13T00:39:22.394Z,99.99
2022-10-13T00:40:22.328Z,99.99
2022-10-13T00:41:22.270Z,99.99
2022-10-13T00:42:22.219Z,99.99
2022-10-13T00:43:22.195Z,99.99
2022-10-13T00:44:22.168Z,99.99
2022-10-13T00:45:22.205Z,99.99
2022-10-13T00:46:22.107Z,99.99
2022-10-13T00:47:22.069Z,99.99
2022-10-13T00:48:22.024Z,99.99
2022-10-13T00:49:21.968Z,99.99
2022-10-13T00:50:21.970Z,99.99
2022-10-13T00:51:21.961Z,99.99
2022-10-13T00:52:21.864Z,99.99
2022-10-13T00:53:21.830Z,99.99
2022-10-13T00:54:21.827Z,99.99
2022-10-13T00:55:21.789Z,99.99
2022-10-13T00:56:21.791Z,99.99
2022-10-13T00:57:21.695Z,99.99
2022-10-13T00:58:21.667Z,99.99
2022-10-13T00:59:21.633Z,99.99
2022-10-13T01:00:21.579Z,99.99
2022-10-13T01:01:21.607Z,99.99
2022-10-13T01:02:21.800Z,99.99
2022-10-13T01:03:21.468Z,99.99
2022-10-13T01:04:21.467Z,99.99
2022-10-13T01:05:21.415Z,99.99
2022-10-13T01:06:23.819Z,99.99
2022-10-13T01:07:21.329Z,99.99
2022-10-13T01:08:21.288Z,99.99
2022-10-13T01:09:21.257Z,99.99
2022-10-13T01:10:21.220Z,99.99
2022-10-13T01:11:21.252Z,99.99
2022-10-13T01:12:21.599Z,99.99
2022-10-13T01:13:21.123Z,99.99
2022-10-13T01:14:21.098Z,99.99
2022-10-13T01:15:21.093Z,99.99
2022-10-13T01:16:21.187Z,99.99
2022-10-13T01:17:20.971Z,99.99
2022-10-13T01:18:20.939Z,99.99
2022-10-13T01:19:20.908Z,99.99
2022-10-13T01:20:20.885Z,99.99
2022-10-13T01:21:20.992Z,99.99
2022-10-13T01:22:21.301Z,99.99
2022-10-13T01:23:21.938Z,99.99
2022-10-13T01:24:20.734Z,99.99
2022-10-13T01:25:20.683Z,99.99
2022-10-13T01:26:20.748Z,99.99
2022-10-13T01:27:20.623Z,99.99
2022-10-13T01:28:20.666Z,99.99
2022-10-13T01:29:20.573Z,99.99
2022-10-13T01:30:20.518Z,99.99
2022-10-13T01:31:20.535Z,99.99
2022-10-13T01:32:20.995Z,99.99
2022-10-13T01:33:20.395Z,99.99
2022-10-13T01:34:20.363Z,99.99
2022-10-13T01:35:20.336Z,99.99
2022-10-13T01:36:20.287Z,99.99
2022-10-13T01:37:20.324Z,99.99
2022-10-13T01:38:20.231Z,99.99
2022-10-13T01:39:20.183Z,99.99
2022-10-13T01:40:20.229Z,99.99
2022-10-13T01:41:20.120Z,99.99
2022-10-13T01:42:20.580Z,99.99
2022-10-13T01:43:20.045Z,99.99
2022-10-13T01:44:20.020Z,99.99
2022-10-13T01:45:20.017Z,99.99
2022-10-13T01:46:20.001Z,99.99
2022-10-13T01:47:20.029Z,99.99
2022-10-13T01:48:19.866Z,99.99
2022-10-13T01:49:19.864Z,99.99
2022-10-13T01:50:19.808Z,99.99
2022-10-13T01:51:19.819Z,99.99
2022-10-13T01:52:20.153Z,99.99
2022-10-13T01:53:19.785Z,99.99
2022-10-13T01:54:19.654Z,99.99
2022-10-13T01:55:19.613Z,99.99
2022-10-13T01:56:19.580Z,99.99
2022-10-13T01:57:19.542Z,99.99
2022-10-13T01:58:19.576Z,99.99
2022-10-13T01:59:19.589Z,99.99
2022-10-13T02:00:19.449Z,99.99
2022-10-13T02:01:19.419Z,99.99
2022-10-13T02:02:19.803Z,99.99
2022-10-13T02:03:19.328Z,99.99
2022-10-13T02:04:19.299Z,99.99
2022-10-13T02:05:19.350Z,99.99
2022-10-13T02:06:19.224Z,99.99
2022-10-13T02:07:19.187Z,99.99
2022-10-13T02:08:19.181Z,99.99
2022-10-13T02:09:21.948Z,99.99
2022-10-13T02:10:19.141Z,99.99
2022-10-13T02:11:19.111Z,99.99
2022-10-13T02:12:19.394Z,99.99
2022-10-13T02:13:19.024Z,99.99
2022-10-13T02:14:18.967Z,99.99
2022-10-13T02:15:18.917Z,99.99
2022-10-13T02:16:18.901Z,99.99
2022-10-13T02:17:18.913Z,99.99
2022-10-13T02:18:18.813Z,99.99
2022-10-13T02:19:18.819Z,99.99
2022-10-13T02:20:18.732Z,99.99
2022-10-13T02:21:18.709Z,99.99
2022-10-13T02:22:18.919Z,99.99
2022-10-13T02:23:18.716Z,99.99
2022-10-13T02:24:18.667Z,99.99
2022-10-13T02:25:18.547Z,99.99
2022-10-13T02:26:18.533Z,99.99
2022-10-13T02:27:18.496Z,99.99
2022-10-13T02:28:18.493Z,99.99
2022-10-13T02:29:18.489Z,99.99
2022-10-13T02:30:18.384Z,99.99
2022-10-13T02:31:18.357Z,99.99
2022-10-13T02:32:18.393Z,99.99
2022-10-13T02:33:18.256Z,99.99
2022-10-13T02:34:18.275Z,99.99
2022-10-13T02:35:18.253Z,99.99
2022-10-13T02:36:18.147Z,99.99
2022-10-13T02:37:18.107Z,99.99
2022-10-13T02:38:18.106Z,99.99
2022-10-13T02:39:18.056Z,99.99
2022-10-13T02:40:18.072Z,99.99
2022-10-13T02:41:17.972Z,99.99
2022-10-13T02:42:18.261Z,99.99
2022-10-13T02:43:17.967Z,99.99
2022-10-13T02:44:17.941Z,99.99
2022-10-13T02:45:18.157Z,99.99
2022-10-13T02:46:17.789Z,99.99
2022-10-13T02:47:17.762Z,99.99
2022-10-13T02:48:17.764Z,99.99
2022-10-13T02:49:17.681Z,99.99
2022-10-13T02:50:17.797Z,99.99
2022-10-13T02:51:17.712Z,99.99
2022-10-13T02:52:17.935Z,99.99
2022-10-13T02:53:17.536Z,99.99
2022-10-13T02:54:17.522Z,99.99
2022-10-13T02:55:17.575Z,99.99
2022-10-13T02:56:17.433Z,99.99
2022-10-13T02:57:17.462Z,99.99
2022-10-13T02:58:17.396Z,99.99
2022-10-13T02:59:17.330Z,99.99
2022-10-13T03:00:17.283Z,99.99
2022-10-13T03:01:17.290Z,99.99
2022-10-13T03:02:17.508Z,99.99
2022-10-13T03:03:17.247Z,99.99
2022-10-13T03:04:17.141Z,99.99
2022-10-13T03:05:17.109Z,99.99
2022-10-13T03:06:17.069Z,99.99
2022-10-13T03:07:17.067Z,99.99
2022-10-13T03:08:17.031Z,99.99
2022-10-13T03:09:17.031Z,99.99
2022-10-13T03:10:16.951Z,99.99
2022-10-13T03:11:16.904Z,99.99
2022-10-13T03:12:17.047Z,99.99
2022-10-13T03:13:16.834Z,99.99
2022-10-13T03:14:16.819Z,99.99
2022-10-13T03:15:16.870Z,99.99
2022-10-13T03:16:16.736Z,99.99
2022-10-13T03:17:16.687Z,99.99
2022-10-13T03:18:16.656Z,99.99
2022-10-13T03:19:16.744Z,99.99
2022-10-13T03:20:16.607Z,99.99
2022-10-13T03:21:16.535Z,99.99
2022-10-13T03:22:16.589Z,99.99
2022-10-13T03:23:16.456Z,99.99
2022-10-13T03:24:16.513Z,99.99
2022-10-13T03:25:16.404Z,99.99
2022-10-13T03:26:16.353Z,99.99
2022-10-13T03:27:16.311Z,99.99
2022-10-13T03:28:16.332Z,99.99
2022-10-13T03:29:16.245Z,99.99
2022-10-13T03:30:16.348Z,99.99
2022-10-13T03:31:16.183Z,99.99
2022-10-13T03:32:16.151Z,99.99
2022-10-13T03:33:16.108Z,99.99
2022-10-13T03:34:16.100Z,99.99
2022-10-13T03:35:16.058Z,99.99
2022-10-13T03:36:16.066Z,99.99
2022-10-13T03:37:15.977Z,99.99
2022-10-13T03:38:15.999Z,99.99
2022-10-13T03:39:15.901Z,99.99
2022-10-13T03:40:15.862Z,99.99
2022-10-13T03:41:15.822Z,99.99
2022-10-13T03:42:15.790Z,99.99
2022-10-13T03:43:15.762Z,99.99
2022-10-13T03:44:15.768Z,99.99
2022-10-13T03:45:15.765Z,99.99
2022-10-13T03:46:15.650Z,99.99
2022-10-13T03:47:15.628Z,99.99
2022-10-13T03:48:15.594Z,99.99
2022-10-13T03:49:15.552Z,99.99
2022-10-13T03:50:15.555Z,99.99
2022-10-13T03:51:15.472Z,99.99
2022-10-13T03:52:15.479Z,99.99
2022-10-13T03:53:15.419Z,99.99
2022-10-13T03:54:15.366Z,99.99
2022-10-13T03:55:15.672Z,99.99
2022-10-13T03:56:15.290Z,99.99
2022-10-13T03:57:15.262Z,99.99
2022-10-13T03:58:15.219Z,99.99
2022-10-13T03:59:15.189Z,99.99
2022-10-13T04:00:15.217Z,99.99
2022-10-13T04:01:15.188Z,99.99
2022-10-13T04:02:15.208Z,99.99
2022-10-13T04:03:15.062Z,99.99
2022-10-13T04:04:15.083Z,99.99
2022-10-13T04:05:14.975Z,99.99
2022-10-13T04:06:15.138Z,99.99
2022-10-13T04:07:14.900Z,99.99
2022-10-13T04:08:14.867Z,99.99
2022-10-13T04:09:14.911Z,99.99
2022-10-13T04:10:14.792Z,99.99
2022-10-13T04:11:14.783Z,99.99
2022-10-13T04:12:18.439Z,99.99
2022-10-13T04:13:14.702Z,99.99
2022-10-13T04:14:14.650Z,99.99
2022-10-13T04:15:14.636Z,99.99
2022-10-13T04:16:14.609Z,99.99
2022-10-13T04:17:14.547Z,99.99
2022-10-13T04:18:14.586Z,99.99
2022-10-13T04:19:14.494Z,99.99
2022-10-13T04:20:14.487Z,99.99
2022-10-13T04:21:14.426Z,99.99
2022-10-13T04:22:14.376Z,99.99
2022-10-13T04:23:14.342Z,99.99
2022-10-13T04:24:14.373Z,99.99
2022-10-13T04:25:14.280Z,99.99
2022-10-13T04:26:14.230Z,99.99
2022-10-13T04:27:14.263Z,99.99
2022-10-13T04:28:14.242Z,99.99
2022-10-13T04:29:14.127Z,99.99
2022-10-13T04:30:14.149Z,99.99
2022-10-13T04:31:14.065Z,99.99
2022-10-13T04:32:14.024Z,99.99
2022-10-13T04:33:14.000Z,99.99
2022-10-13T04:34:13.959Z,99.99
2022-10-13T04:35:14.005Z,99.99
2022-10-13T04:36:13.880Z,99.99
2022-10-13T04:37:13.911Z,99.99
2022-10-13T04:38:13.893Z,99.99
2022-10-13T04:39:13.788Z,99.99
2022-10-13T04:40:13.747Z,99.99
2022-10-13T04:41:13.783Z,99.99
2022-10-13T04:42:13.671Z,99.99
2022-10-13T04:43:13.651Z,99.99
2022-10-13T04:44:13.612Z,99.99
2022-10-13T04:45:13.591Z,99.99
2022-10-13T04:46:13.528Z,99.99
2022-10-13T04:47:13.555Z,99.99
2022-10-13T04:48:13.464Z,99.99
2022-10-13T04:49:13.430Z,99.99
2022-10-13T04:50:13.395Z,99.99
2022-10-13T04:51:13.355Z,99.99
2022-10-13T04:52:13.317Z,99.99
2022-10-13T04:53:18.912Z,99.99
2022-10-13T04:54:13.255Z,99.99
2022-10-13T04:55:13.216Z,99.99
2022-10-13T04:56:13.189Z,99.99
2022-10-13T04:57:19.977Z,99.99
2022-10-13T04:58:13.115Z,99.99
2022-10-13T04:59:13.143Z,99.99
2022-10-13T05:00:13.035Z,99.99
2022-10-13T05:01:16.405Z,99.99
2022-10-13T05:02:12.968Z,99.99
2022-10-13T05:03:12.930Z,99.99
2022-10-13T05:04:12.898Z,99.99
2022-10-13T05:05:12.933Z,99.99
2022-10-13T05:06:12.842Z,99.99
2022-10-13T05:07:18.109Z,99.99
2022-10-13T05:08:12.760Z,99.99
2022-10-13T05:09:12.719Z,99.99
2022-10-13T05:10:12.687Z,99.99
2022-10-13T05:11:12.723Z,99.99
2022-10-13T05:12:12.676Z,99.99
2022-10-13T05:13:12.576Z,99.99
2022-10-13T05:14:12.547Z,99.99
2022-10-13T05:15:12.512Z,99.99
2022-10-13T05:16:12.475Z,99.99
2022-10-13T05:17:12.439Z,99.99
2022-10-13T05:18:12.465Z,99.99
2022-10-13T05:19:12.371Z,99.99
2022-10-13T05:20:12.349Z,99.99
2022-10-13T05:21:12.312Z,99.99
2022-10-13T05:22:12.264Z,99.99
2022-10-13T05:23:12.225Z,99.99
2022-10-13T05:24:12.275Z,99.99
2022-10-13T05:25:12.162Z,99.99
2022-10-13T05:26:12.123Z,99.99
2022-10-13T05:27:12.085Z,99.99
2022-10-13T05:28:12.083Z,99.99
2022-10-13T05:29:12.021Z,99.99
2022-10-13T05:30:12.037Z,99.99
2022-10-13T05:31:11.949Z,99.99
2022-10-13T05:32:11.906Z,99.99
2022-10-13T05:33:11.876Z,99.99
2022-10-13T05:34:11.925Z,99.99
2022-10-13T05:35:11.877Z,99.99
2022-10-13T05:36:11.869Z,99.99
2022-10-13T05:37:11.737Z,99.99
2022-10-13T05:38:11.705Z,99.99
2022-10-13T05:39:11.667Z,99.99
2022-10-13T05:40:11.650Z,99.99
2022-10-13T05:41:11.687Z,99.99
2022-10-13T05:42:11.570Z,99.99
2022-10-13T05:43:11.522Z,99.99
2022-10-13T05:44:11.490Z,99.99
2022-10-13T05:45:11.456Z,99.99
2022-10-13T05:46:11.427Z,99.99
2022-10-13T05:47:11.441Z,99.99
2022-10-13T05:48:11.347Z,99.99
2022-10-13T05:49:11.316Z,99.99
2022-10-13T05:50:11.282Z,99.99
2022-10-13T05:51:11.244Z,99.99
2022-10-13T05:52:11.274Z,99.99
2022-10-13T05:53:11.233Z,99.99
2022-10-13T05:54:11.141Z,99.99
2022-10-13T05:55:11.102Z,99.99
2022-10-13T05:56:11.063Z,99.99
2022-10-13T05:57:11.036Z,99.99
2022-10-13T05:58:10.999Z,99.99
2022-10-13T05:59:11.018Z,99.99
2022-10-13T06:00:10.929Z,99.99
2022-10-13T06:01:10.891Z,99.99
2022-10-13T06:02:10.916Z,99.99
2022-10-13T06:03:10.873Z,99.99
2022-10-13T06:04:10.786Z,99.99
2022-10-13T06:05:10.802Z,99.99
2022-10-13T06:06:10.717Z,99.99
2022-10-13T06:07:10.684Z,99.99
2022-10-13T06:08:10.654Z,99.99
2022-10-13T06:09:10.620Z,99.99
2022-10-13T06:10:10.634Z,99.99
2022-10-13T06:11:10.590Z,99.99
2022-10-13T06:12:10.506Z,99.99
2022-10-13T06:13:10.471Z,99.99
2022-10-13T06:14:10.434Z,99.99
2022-10-13T06:15:10.401Z,99.99
2022-10-13T06:16:10.420Z,99.99
2022-10-13T06:17:10.328Z,99.99
2022-10-13T06:18:10.297Z,99.99
2022-10-13T06:19:10.260Z,99.99
2022-10-13T06:20:10.234Z,99.99
2022-10-13T06:21:10.276Z,99.99
2022-10-13T06:22:10.159Z,99.99
2022-10-13T06:23:10.120Z,99.99
2022-10-13T06:24:10.083Z,99.99
2022-10-13T06:25:10.049Z,99.99
2022-10-13T06:26:10.013Z,99.99
2022-10-13T06:27:10.047Z,99.99
2022-10-13T06:28:09.947Z,99.99
2022-10-13T06:29:09.954Z,99.99
2022-10-13T06:30:09.898Z,99.99
2022-10-13T06:31:09.858Z,99.99
2022-10-13T06:32:09.807Z,99.99
2022-10-13T06:33:09.819Z,99.99
2022-10-13T06:34:09.736Z,99.99
2022-10-13T06:35:09.718Z,99.99
2022-10-13T06:36:09.727Z,99.99
2022-10-13T06:37:09.643Z,99.99
2022-10-13T06:38:09.601Z,99.99
2022-10-13T06:39:09.568Z,99.99
2022-10-13T06:40:09.575Z,99.99
2022-10-13T06:41:09.679Z,99.99
2022-10-13T06:42:09.464Z,99.99
2022-10-13T06:43:09.429Z,99.99
2022-10-13T06:44:09.397Z,99.99
2022-10-13T06:45:09.364Z,99.99
2022-10-13T06:46:09.325Z,99.99
2022-10-13T06:47:09.360Z,99.99
2022-10-13T06:48:09.260Z,99.99
2022-10-13T06:49:09.226Z,99.99
2022-10-13T06:50:09.190Z,99.99
2022-10-13T06:51:09.155Z,99.99
2022-10-13T06:52:09.192Z,99.99
2022-10-13T06:53:09.087Z,99.99
2022-10-13T06:54:09.057Z,99.99
2022-10-13T06:55:09.029Z,99.99
2022-10-13T06:56:09.005Z,99.99
2022-10-13T06:57:08.958Z,99.99
2022-10-13T06:58:08.995Z,99.58
2022-10-13T06:59:08.984Z,99.89
2022-10-13T07:00:08.855Z,99.99
2022-10-13T07:01:08.863Z,99.99
2022-10-13T07:02:08.784Z,99.89
2022-10-13T07:03:08.756Z,99.99
2022-10-13T07:04:08.778Z,99.63
2022-10-13T07:05:08.683Z,99.69
2022-10-13T07:06:08.649Z,98.97
2022-10-13T07:07:08.612Z,99.38
2022-10-13T07:08:08.580Z,99.18
2022-10-13T07:09:08.548Z,99.44
2022-10-13T07:10:08.576Z,99.13
2022-10-13T07:11:12.959Z,98.72
2022-10-13T07:12:08.445Z,98.83
2022-10-13T07:13:08.445Z,99.13
2022-10-13T07:14:08.397Z,97.96
2022-10-13T07:15:08.348Z,98.37
2022-10-13T07:16:08.373Z,98.07
2022-10-13T07:17:08.284Z,98.47
2022-10-13T07:18:08.247Z,98.07
2022-10-13T07:19:08.224Z,97.50
2022-10-13T07:20:08.181Z,97.09
2022-10-13T07:21:08.150Z,97.77
2022-10-13T07:22:08.163Z,97.25
2022-10-13T07:23:08.080Z,96.84
2022-10-13T07:24:08.042Z,96.84
2022-10-13T07:25:08.012Z,96.49
2022-10-13T07:26:07.990Z,96.39
2022-10-13T07:27:08.105Z,95.98
2022-10-13T07:28:07.970Z,95.17
2022-10-13T07:29:07.881Z,94.55
2022-10-13T07:30:07.849Z,95.12
2022-10-13T07:31:07.814Z,95.32
2022-10-13T07:32:07.785Z,94.56
2022-10-13T07:33:07.750Z,94.97
2022-10-13T07:34:07.755Z,94.77
2022-10-13T07:35:07.676Z,94.42
2022-10-13T07:36:07.654Z,94.42
2022-10-13T07:37:07.614Z,94.27
2022-10-13T07:38:07.601Z,93.66
2022-10-13T07:39:07.688Z,93.31
2022-10-13T07:40:07.530Z,93.51
2022-10-13T07:41:07.491Z,92.55
2022-10-13T07:42:07.454Z,91.22
2022-10-13T07:43:07.422Z,91.59
2022-10-13T07:44:07.535Z,90.94
2022-10-13T07:45:07.357Z,90.42
2022-10-13T07:46:07.327Z,90.59
2022-10-13T07:47:07.350Z,90.18
2022-10-13T07:48:07.313Z,90.03
2022-10-13T07:49:09.234Z,89.94
2022-10-13T07:50:07.203Z,89.59
2022-10-13T07:51:07.170Z,89.18
2022-10-13T07:52:07.132Z,89.79
2022-10-13T07:53:07.157Z,89.64
2022-10-13T07:54:07.142Z,88.12
2022-10-13T07:55:07.051Z,88.32
2022-10-13T07:56:07.004Z,88.08
2022-10-13T07:57:06.976Z,88.69
2022-10-13T07:58:07.005Z,87.93
2022-10-13T07:59:06.914Z,86.82
2022-10-13T08:00:06.989Z,86.71
2022-10-13T08:01:06.852Z,87.98
2022-10-13T08:02:06.820Z,87.93
2022-10-13T08:03:06.786Z,88.44
2022-10-13T08:04:06.759Z,88.44
2022-10-13T08:05:06.790Z,87.49
2022-10-13T08:06:06.695Z,87.59
2022-10-13T08:07:06.677Z,87.29
2022-10-13T08:08:06.647Z,87.49
2022-10-13T08:09:06.599Z,87.89
2022-10-13T08:10:06.689Z,87.59
2022-10-13T08:11:06.611Z,87.99
2022-10-13T08:12:06.514Z,86.47
2022-10-13T08:13:06.476Z,86.53
2022-10-13T08:14:06.450Z,87.85
2022-10-13T08:15:06.763Z,87.49
2022-10-13T08:16:06.489Z,86.83
2022-10-13T08:17:06.364Z,87.24
2022-10-13T08:18:06.326Z,86.63
2022-10-13T08:19:06.297Z,86.22
2022-10-13T08:20:06.261Z,85.58
2022-10-13T08:22:09.582Z,85.38
2022-10-13T08:23:06.171Z,85.47
2022-10-13T08:24:06.142Z,85.88
2022-10-13T08:25:06.113Z,86.05
2022-10-13T08:26:06.092Z,86.19
2022-10-13T08:27:06.115Z,85.64
2022-10-13T08:28:06.037Z,85.84
2022-10-13T08:29:22.862Z,85.74
2022-10-13T08:30:05.986Z,86.05
2022-10-13T08:31:06.004Z,86.00
2022-10-13T08:32:05.954Z,85.09
2022-10-13T08:33:05.876Z,84.38
2022-10-13T08:34:05.840Z,84.78
2022-10-13T08:35:05.809Z,85.15
2022-10-13T08:36:05.811Z,84.58
2022-10-13T08:37:05.812Z,83.73
2022-10-13T08:38:05.748Z,85.05
2022-10-13T08:39:05.698Z,84.34
2022-10-13T08:40:05.666Z,83.63
2022-10-13T08:41:05.637Z,83.73
2022-10-13T08:42:05.655Z,83.23
2022-10-13T08:43:05.571Z,84.20
2022-10-13T08:44:41.288Z,83.73
2022-10-13T08:45:35.805Z,84.41
2022-10-13T08:46:05.480Z,85.11
2022-10-13T08:47:05.516Z,84.70
2022-10-13T08:48:05.565Z,83.59
2022-10-13T08:49:05.395Z,85.11
2022-10-13T08:50:05.358Z,83.49
2022-10-13T08:51:05.330Z,83.59
2022-10-13T08:52:05.304Z,83.76
2022-10-13T08:53:05.326Z,82.24
2022-10-13T08:54:05.238Z,82.54
2022-10-13T08:55:05.232Z,82.54
2022-10-13T08:56:05.186Z,82.95
2022-10-13T08:57:05.226Z,83.76
2022-10-13T08:58:05.180Z,83.25
2022-10-13T08:59:05.102Z,82.03
2022-10-13T09:00:05.066Z,81.49
2022-10-13T09:01:05.038Z,82.30
2022-10-13T09:02:05.098Z,81.79
2022-10-13T09:03:04.979Z,81.69
2022-10-13T09:04:05.070Z,83.47
2022-10-13T09:05:04.918Z,83.37
2022-10-13T09:06:04.987Z,82.12
2022-10-13T09:07:04.863Z,81.71
2022-10-13T09:08:04.831Z,82.02
2022-10-13T09:09:04.799Z,81.31
2022-10-13T09:10:04.850Z,81.37
2022-10-13T09:11:04.744Z,81.27
2022-10-13T09:12:04.711Z,80.16
2022-10-13T09:13:04.683Z,80.66
2022-10-13T09:14:04.665Z,79.86
2022-10-13T09:15:04.626Z,80.12
2022-10-13T09:16:04.657Z,80.43
2022-10-13T09:17:04.605Z,79.52
2022-10-13T09:18:04.542Z,79.82
2022-10-13T09:19:04.531Z,80.22
2022-10-13T09:20:04.534Z,79.32
2022-10-13T09:21:04.447Z,79.86
2022-10-13T09:22:04.474Z,79.92
2022-10-13T09:23:04.429Z,79.72
2022-10-13T09:24:04.362Z,80.39
2022-10-13T09:25:04.379Z,80.19
2022-10-13T09:26:04.301Z,79.88
2022-10-13T09:27:04.276Z,80.49
2022-10-13T09:28:04.300Z,80.45
2022-10-13T09:29:04.220Z,79.38
2022-10-13T09:30:04.206Z,79.79
2022-10-13T09:31:04.255Z,78.97
2022-10-13T09:32:04.130Z,78.67
2022-10-13T09:33:04.110Z,79.48
2022-10-13T09:34:04.077Z,79.14
2022-10-13T09:35:04.063Z,79.14
2022-10-13T09:36:04.063Z,80.55
2022-10-13T09:37:04.004Z,78.70
2022-10-13T09:38:03.973Z,78.70
2022-10-13T09:39:03.931Z,78.09
2022-10-13T09:40:03.904Z,78.70
2022-10-13T09:41:03.930Z,77.49
2022-10-13T09:42:03.849Z,77.99
2022-10-13T09:43:03.822Z,77.45
2022-10-13T09:44:03.790Z,77.15
2022-10-13T09:45:03.782Z,77.95
2022-10-13T09:46:04.224Z,77.45
2022-10-13T09:47:03.704Z,78.76
2022-10-13T09:48:03.698Z,78.76
2022-10-13T09:49:03.652Z,77.55
2022-10-13T09:50:07.539Z,78.56
2022-10-13T09:51:04.548Z,78.76
2022-10-13T09:52:03.570Z,78.46
2022-10-13T09:53:03.539Z,78.26
2022-10-13T09:54:03.503Z,78.56
2022-10-13T09:55:03.479Z,78.56
2022-10-13T09:56:03.458Z,79.77
2022-10-13T09:57:03.496Z,78.52
2022-10-13T09:58:03.402Z,77.82
2022-10-13T09:59:03.364Z,78.63
2022-10-13T10:00:03.478Z,78.66
2022-10-13T10:01:03.316Z,78.63
2022-10-13T10:02:03.295Z,77.92
2022-10-13T10:03:03.301Z,77.92
2022-10-13T10:04:03.280Z,77.42
2022-10-13T10:05:03.212Z,77.42
2022-10-13T10:06:03.274Z,78.63
2022-10-13T10:07:03.164Z,78.83
2022-10-13T10:08:03.112Z,78.63
2022-10-13T10:09:04.580Z,78.52
2022-10-13T10:10:03.068Z,77.31
2022-10-13T10:11:03.027Z,78.72
2022-10-13T10:12:03.001Z,79.33
2022-10-13T10:13:02.978Z,79.13
2022-10-13T10:14:02.962Z,79.83
2022-10-13T10:15:02.994Z,79.69
2022-10-13T10:16:02.887Z,79.39
2022-10-13T10:17:09.556Z,78.69
2022-10-13T10:18:02.858Z,78.89
2022-10-13T10:19:02.808Z,78.59
2022-10-13T10:20:02.783Z,78.19
2022-10-13T10:21:02.827Z,78.49
2022-10-13T10:22:02.740Z,78.19
2022-10-13T10:23:02.702Z,78.99
2022-10-13T10:24:02.669Z,78.59
2022-10-13T10:25:02.641Z,78.79
2022-10-13T10:26:02.612Z,78.39
2022-10-13T10:27:02.662Z,77.98
2022-10-13T10:28:02.561Z,77.98
2022-10-13T10:29:02.737Z,77.38
2022-10-13T10:30:02.497Z,77.17
2022-10-13T10:31:02.480Z,76.47
2022-10-13T10:32:02.448Z,75.87
2022-10-13T10:33:02.485Z,76.97
2022-10-13T10:34:02.395Z,76.57
2022-10-13T10:35:02.363Z,75.80
2022-10-13T10:36:02.348Z,76.10
2022-10-13T10:37:02.312Z,75.90
2022-10-13T10:38:02.277Z,75.60
2022-10-13T10:39:02.313Z,76.20
2022-10-13T10:40:02.220Z,76.64
2022-10-13T10:41:02.205Z,77.01
2022-10-13T10:42:02.167Z,76.20
2022-10-13T10:43:02.210Z,76.10
2022-10-13T10:44:02.111Z,76.51
2022-10-13T10:45:02.092Z,76.51
2022-10-13T10:46:02.050Z,76.40
2022-10-13T10:47:02.019Z,75.90
2022-10-13T10:48:02.004Z,76.34
2022-10-13T10:49:02.024Z,76.91
2022-10-13T10:50:01.944Z,77.21
2022-10-13T10:51:01.914Z,75.70
2022-10-13T10:52:01.882Z,76.00
2022-10-13T10:53:01.860Z,75.10
2022-10-13T10:54:01.892Z,75.50
2022-10-13T10:55:01.795Z,75.80
2022-10-13T10:56:01.775Z,75.10
2022-10-13T10:57:01.748Z,74.99
2022-10-13T10:58:01.720Z,75.40
2022-10-13T10:59:01.772Z,75.80
2022-10-13T11:00:01.659Z,75.70
2022-10-13T11:01:01.631Z,74.79
2022-10-13T11:02:01.599Z,74.90
2022-10-13T11:03:01.579Z,74.99
2022-10-13T11:04:01.612Z,75.40
2022-10-13T11:05:05.354Z,75.60
2022-10-13T11:06:01.488Z,75.40
2022-10-13T11:07:01.460Z,75.40
2022-10-13T11:08:01.454Z,74.90
2022-10-13T11:09:01.414Z,75.10
2022-10-13T11:10:01.453Z,75.40
2022-10-13T11:11:01.388Z,75.40
2022-10-13T11:12:01.429Z,75.50
2022-10-13T11:13:01.294Z,75.40
2022-10-13T11:14:01.287Z,75.50
2022-10-13T11:15:01.237Z,75.80
2022-10-13T11:16:01.212Z,75.80
2022-10-13T11:17:01.182Z,75.40
2022-10-13T11:18:01.223Z,75.40
2022-10-13T11:19:01.135Z,75.70
2022-10-13T11:20:01.090Z,76.31
2022-10-13T11:21:01.072Z,76.10
2022-10-13T11:22:01.282Z,76.61
2022-10-13T11:23:01.054Z,76.51
2022-10-13T11:24:03.889Z,76.10
2022-10-13T11:25:00.963Z,76.00
2022-10-13T11:26:00.930Z,75.60
2022-10-13T11:27:03.686Z,75.70
2022-10-13T11:28:00.951Z,75.80
2022-10-13T11:29:00.845Z,75.96
2022-10-13T11:30:00.865Z,76.20
2022-10-13T11:31:00.785Z,74.76
2022-10-13T11:32:00.766Z,74.86
2022-10-13T11:33:00.736Z,75.02
2022-10-13T11:34:00.739Z,74.82
2022-10-13T11:35:00.685Z,74.62
2022-10-13T11:36:00.701Z,74.58
2022-10-13T11:37:00.622Z,74.89
2022-10-13T11:38:09.283Z,74.89
2022-10-13T11:39:00.587Z,74.69
2022-10-13T11:40:00.532Z,74.89
2022-10-13T11:41:00.514Z,73.78
2022-10-13T11:42:00.549Z,73.85
2022-10-13T11:43:02.708Z,72.97
2022-10-13T11:44:00.416Z,72.74
2022-10-13T11:45:00.412Z,73.04
2022-10-13T11:46:00.361Z,72.88
2022-10-13T11:47:00.335Z,72.64
2022-10-13T11:48:00.407Z,73.35
2022-10-13T11:49:00.319Z,72.84
2022-10-13T11:50:00.264Z,72.74
2022-10-13T11:51:00.236Z,72.94
2022-10-13T11:52:00.320Z,71.53
2022-10-13T11:53:00.174Z,71.97
2022-10-13T11:54:00.142Z,72.57
2022-10-13T11:55:00.123Z,73.14
2022-10-13T11:56:00.142Z,72.94
2022-10-13T11:57:00.067Z,72.44
2022-10-13T11:58:00.156Z,72.14
2022-10-13T11:59:00.008Z,71.63
2022-10-13T12:00:00.044Z,71.53
2022-10-13T12:00:59.956Z,71.63
2022-10-13T12:01:59.927Z,71.80
2022-10-13T12:03:00.037Z,71.60
2022-10-13T12:03:59.924Z,70.50
2022-10-13T12:04:59.867Z,70.19
2022-10-13T12:05:59.835Z,70.09
2022-10-13T12:06:59.785Z,69.79
2022-10-13T12:07:59.758Z,70.39
2022-10-13T12:08:59.734Z,70.36
2022-10-13T12:09:59.762Z,70.19
2022-10-13T12:10:59.677Z,69.89
2022-10-13T12:11:59.664Z,70.19
2022-10-13T12:12:59.639Z,70.76
2022-10-13T12:13:59.597Z,70.06
2022-10-13T12:15:02.639Z,70.66
2022-10-13T12:15:59.652Z,70.46
2022-10-13T12:16:59.535Z,71.06
2022-10-13T12:17:59.481Z,70.56
2022-10-13T12:18:59.463Z,71.30
2022-10-13T12:19:59.436Z,71.50
2022-10-13T12:20:59.417Z,71.09
2022-10-13T12:21:59.439Z,70.66
2022-10-13T12:22:59.366Z,70.86
2022-10-13T12:23:59.319Z,70.29
2022-10-13T12:24:59.303Z,69.59
2022-10-13T12:25:59.270Z,70.12
2022-10-13T12:26:59.250Z,71.13
2022-10-13T12:27:59.286Z,71.03
2022-10-13T12:28:59.225Z,70.73
2022-10-13T12:29:59.164Z,70.43
2022-10-13T12:30:59.142Z,71.53
2022-10-13T12:31:59.112Z,70.32
2022-10-13T12:32:59.080Z,70.53
2022-10-13T12:33:59.100Z,71.33
2022-10-13T12:34:59.034Z,70.63
2022-10-13T12:35:58.998Z,71.13
2022-10-13T12:36:58.972Z,70.73
2022-10-13T12:37:58.994Z,71.60
2022-10-13T12:38:58.979Z,71.40
2022-10-13T12:39:58.899Z,69.89
2022-10-13T12:40:58.865Z,69.72
2022-10-13T12:41:58.845Z,69.82
2022-10-13T12:42:58.816Z,70.43
2022-10-13T12:44:01.186Z,70.53
2022-10-13T12:44:58.895Z,71.09
2022-10-13T12:45:58.805Z,71.50
2022-10-13T12:46:58.781Z,71.40
2022-10-13T12:47:58.701Z,70.79
2022-10-13T12:48:58.674Z,71.26
2022-10-13T12:49:58.621Z,70.76
2022-10-13T12:50:58.603Z,69.56
2022-10-13T12:51:58.630Z,70.06
2022-10-13T12:52:58.540Z,70.89